createdAt,value
2019-03-29T00:02:19.142Z,12.87
2019-03-29T00:04:51.324Z,12.89
2019-03-29T00:07:23.177Z,12.95
2019-03-29T00:09:55.011Z,12.86
2019-03-29T00:12:26.900Z,12.85
2019-03-29T00:14:58.762Z,12.81
2019-03-29T00:17:30.625Z,12.67
2019-03-29T00:20:06.031Z,12.62
2019-03-29T00:22:36.461Z,12.56
2019-03-29T00:25:09.685Z,12.49
2019-03-29T00:27:41.900Z,12.45
2019-03-29T00:30:14.343Z,12.45
2019-03-29T00:32:46.899Z,12.38
2019-03-29T00:35:18.705Z,12.35
2019-03-29T00:37:53.663Z,12.31
2019-03-29T00:40:24.230Z,12.10
2019-03-29T00:42:56.032Z,12.02
2019-03-29T00:45:28.913Z,12.01
2019-03-29T00:48:00.960Z,11.99
2019-03-29T00:50:33.038Z,12.00
2019-03-29T00:53:04.914Z,12.08
2019-03-29T00:55:37.231Z,12.10
2019-03-29T00:58:09.383Z,12.12
2019-03-29T01:00:41.643Z,11.88
2019-03-29T01:03:13.447Z,11.72
2019-03-29T01:05:46.305Z,11.74
2019-03-29T01:08:19.044Z,11.73
2019-03-29T01:10:51.131Z,11.84
2019-03-29T01:13:23.215Z,11.83
2019-03-29T01:15:55.368Z,11.77
2019-03-29T01:18:27.435Z,11.80
2019-03-29T01:20:59.600Z,11.89
2019-03-29T01:23:31.432Z,11.75
2019-03-29T01:26:05.026Z,11.75
2019-03-29T01:28:36.832Z,11.88
2019-03-29T01:31:08.616Z,11.92
2019-03-29T01:33:40.920Z,11.74
2019-03-29T01:36:13.015Z,11.71
2019-03-29T01:38:45.184Z,11.66
2019-03-29T01:41:17.407Z,11.74
2019-03-29T01:43:49.518Z,11.86
2019-03-29T01:46:21.582Z,11.87
2019-03-29T01:48:54.433Z,11.76
2019-03-29T01:51:27.226Z,11.87
2019-03-29T01:54:00.108Z,11.85
2019-03-29T01:56:32.294Z,11.87
2019-03-29T01:59:05.069Z,11.70
2019-03-29T02:01:36.891Z,11.80
2019-03-29T02:04:08.690Z,11.76
2019-03-29T02:06:40.511Z,11.87
2019-03-29T02:09:13.396Z,11.84
2019-03-29T02:11:45.185Z,11.73
2019-03-29T02:14:17.862Z,11.81
2019-03-29T02:16:50.035Z,11.65
2019-03-29T02:19:21.837Z,11.76
2019-03-29T02:21:53.653Z,11.60
2019-03-29T02:24:25.507Z,11.64
2019-03-29T02:26:57.947Z,11.66
2019-03-29T02:29:30.019Z,11.67
2019-03-29T02:32:02.085Z,11.68
2019-03-29T02:34:35.152Z,11.67
2019-03-29T02:37:07.514Z,11.67
2019-03-29T02:39:39.595Z,11.56
2019-03-29T02:42:11.924Z,11.50
2019-03-29T02:44:43.846Z,11.36
2019-03-29T02:47:15.699Z,11.53
2019-03-29T02:49:47.518Z,11.57
2019-03-29T02:52:19.653Z,11.41
2019-03-29T02:54:51.497Z,11.36
2019-03-29T02:57:23.282Z,11.42
2019-03-29T02:59:55.166Z,11.29
2019-03-29T03:02:27.343Z,11.49
2019-03-29T03:04:59.308Z,11.45
2019-03-29T03:07:31.396Z,11.50
2019-03-29T03:10:03.397Z,11.46
2019-03-29T03:12:35.821Z,11.34
2019-03-29T03:15:09.311Z,11.43
2019-03-29T03:17:41.579Z,11.42
2019-03-29T03:20:15.952Z,11.43
2019-03-29T03:22:48.311Z,11.37
2019-03-29T03:25:20.164Z,11.38
2019-03-29T03:27:52.282Z,11.35
2019-03-29T03:30:24.295Z,11.37
2019-03-29T03:32:56.277Z,11.37
2019-03-29T03:35:28.033Z,11.36
2019-03-29T03:38:00.502Z,11.37
2019-03-29T03:40:32.604Z,11.37
2019-03-29T03:43:05.783Z,11.30
2019-03-29T03:45:37.608Z,11.28
2019-03-29T03:48:09.424Z,11.29
2019-03-29T03:50:45.697Z,11.28
2019-03-29T03:53:17.572Z,11.25
2019-03-29T03:55:50.005Z,11.25
2019-03-29T03:58:23.565Z,11.19
2019-03-29T04:00:59.451Z,11.22
2019-03-29T04:03:31.763Z,11.19
2019-03-29T04:06:03.633Z,11.19
2019-03-29T04:08:35.429Z,11.13
2019-03-29T04:11:07.203Z,11.05
2019-03-29T04:13:39.373Z,11.04
2019-03-29T04:16:11.511Z,11.00
2019-03-29T04:18:43.327Z,10.96
2019-03-29T04:21:15.193Z,10.92
2019-03-29T04:23:47.066Z,10.86
2019-03-29T04:26:18.869Z,10.83
2019-03-29T04:29:04.045Z,10.73
2019-03-29T04:31:25.071Z,10.84
2019-03-29T04:33:57.408Z,10.78
2019-03-29T04:36:29.536Z,10.81
2019-03-29T04:39:01.717Z,10.79
2019-03-29T04:41:35.642Z,10.73
2019-03-29T04:44:07.905Z,10.75
2019-03-29T04:46:39.724Z,10.80
2019-03-29T04:49:11.629Z,10.68
2019-03-29T04:51:43.794Z,10.71
2019-03-29T04:54:15.609Z,10.67
2019-03-29T04:56:47.470Z,10.57
2019-03-29T04:59:19.297Z,10.55
2019-03-29T05:01:51.773Z,10.64
2019-03-29T05:04:23.580Z,10.68
2019-03-29T05:06:55.666Z,10.65
2019-03-29T05:09:28.286Z,10.71
2019-03-29T05:12:00.194Z,10.75
2019-03-29T05:14:32.516Z,10.76
2019-03-29T05:17:05.617Z,10.74
2019-03-29T05:19:38.625Z,10.76
2019-03-29T05:22:10.399Z,10.69
2019-03-29T05:24:42.278Z,10.55
2019-03-29T05:27:14.419Z,10.58
2019-03-29T05:29:46.340Z,10.55
2019-03-29T05:32:18.146Z,10.51
2019-03-29T05:34:49.955Z,10.53
2019-03-29T05:37:22.446Z,10.48
2019-03-29T05:39:54.327Z,10.43
2019-03-29T05:42:26.370Z,10.46
2019-03-29T05:44:58.265Z,10.45
2019-03-29T05:47:30.382Z,10.52
2019-03-29T05:50:02.302Z,10.55
2019-03-29T05:52:34.137Z,10.58
2019-03-29T05:55:06.401Z,10.60
2019-03-29T05:57:39.294Z,10.57
2019-03-29T06:00:13.572Z,10.62
2019-03-29T06:02:45.437Z,10.66
2019-03-29T06:05:17.387Z,10.62
2019-03-29T06:07:49.558Z,10.59
2019-03-29T06:10:22.247Z,10.63
2019-03-29T06:12:54.637Z,10.67
2019-03-29T06:15:26.743Z,10.59
2019-03-29T06:17:58.658Z,10.52
2019-03-29T06:20:30.820Z,10.55
2019-03-29T06:23:02.947Z,10.52
2019-03-29T06:25:36.278Z,10.57
2019-03-29T06:28:08.779Z,10.69
2019-03-29T06:30:40.561Z,10.74
2019-03-29T06:33:12.454Z,10.74
2019-03-29T06:35:45.926Z,10.72
2019-03-29T06:38:18.200Z,10.88
2019-03-29T06:41:02.090Z,10.90
2019-03-29T06:43:24.425Z,10.88
2019-03-29T06:45:56.232Z,10.82
2019-03-29T06:48:28.024Z,10.91
2019-03-29T06:51:00.482Z,10.91
2019-03-29T06:53:32.295Z,10.93
2019-03-29T06:56:06.632Z,11.04
2019-03-29T06:58:38.572Z,11.06
2019-03-29T07:01:10.776Z,11.14
2019-03-29T07:03:42.832Z,11.11
2019-03-29T07:06:14.622Z,11.10
2019-03-29T07:08:46.927Z,11.18
2019-03-29T07:11:19.066Z,11.21
2019-03-29T07:13:57.387Z,11.35
2019-03-29T07:16:25.446Z,11.43
2019-03-29T07:18:57.251Z,11.43
2019-03-29T07:21:29.183Z,11.53
2019-03-29T07:24:01.342Z,11.58
2019-03-29T07:26:33.201Z,11.70
2019-03-29T07:29:07.070Z,11.70
2019-03-29T07:31:38.924Z,11.83
2019-03-29T07:34:11.792Z,11.94
2019-03-29T07:36:43.860Z,12.13
2019-03-29T07:39:15.657Z,12.14
2019-03-29T07:41:47.780Z,12.32
2019-03-29T07:44:19.569Z,12.38
2019-03-29T07:46:51.350Z,12.38
2019-03-29T07:49:23.740Z,12.54
2019-03-29T07:51:55.625Z,12.58
2019-03-29T07:54:27.830Z,12.63
2019-03-29T07:57:00.004Z,12.78
2019-03-29T07:59:32.947Z,12.98
2019-03-29T08:02:06.310Z,13.29
2019-03-29T08:04:38.255Z,13.50
2019-03-29T08:07:10.229Z,13.60
2019-03-29T08:09:42.025Z,13.75
2019-03-29T08:12:13.970Z,13.96
2019-03-29T08:14:45.915Z,14.06
2019-03-29T08:17:18.375Z,14.21
2019-03-29T08:20:05.708Z,14.36
2019-03-29T08:22:24.984Z,14.46
2019-03-29T08:24:59.248Z,14.46
2019-03-29T08:27:30.923Z,14.66
2019-03-29T08:30:02.903Z,14.77
2019-03-29T08:32:36.139Z,14.88
2019-03-29T08:35:08.510Z,14.83
2019-03-29T08:37:40.385Z,14.87
2019-03-29T08:40:13.346Z,14.99
2019-03-29T08:42:46.872Z,15.21
2019-03-29T08:45:22.288Z,15.11
2019-03-29T08:47:54.161Z,15.30
2019-03-29T08:50:26.075Z,15.33
2019-03-29T08:52:58.189Z,15.41
2019-03-29T08:55:30.059Z,15.53
2019-03-29T08:58:01.831Z,15.66
2019-03-29T09:00:35.363Z,15.64
2019-03-29T09:03:07.567Z,15.71
2019-03-29T09:05:40.403Z,15.72
2019-03-29T09:08:12.462Z,15.81
2019-03-29T09:10:44.335Z,15.93
2019-03-29T09:13:16.596Z,16.05
2019-03-29T09:15:48.493Z,15.98
2019-03-29T09:18:20.363Z,16.17
2019-03-29T09:20:52.427Z,16.25
2019-03-29T09:23:25.356Z,16.28
2019-03-29T09:25:57.192Z,16.35
2019-03-29T09:28:32.596Z,16.53
2019-03-29T09:31:02.862Z,16.45
2019-03-29T09:33:36.557Z,16.55
2019-03-29T09:36:08.655Z,16.54
2019-03-29T09:38:43.559Z,16.42
2019-03-29T09:41:14.481Z,16.52
2019-03-29T09:43:46.262Z,16.43
2019-03-29T09:46:18.047Z,16.59
2019-03-29T09:48:50.124Z,16.60
2019-03-29T09:51:22.190Z,16.56
2019-03-29T09:53:54.005Z,16.47
2019-03-29T09:56:37.888Z,16.36
2019-03-29T09:58:59.817Z,16.52
2019-03-29T10:01:31.918Z,16.70
2019-03-29T10:04:03.864Z,16.87
2019-03-29T10:06:36.837Z,17.06
2019-03-29T10:09:09.618Z,17.27
2019-03-29T10:11:41.412Z,17.43
2019-03-29T10:14:13.356Z,17.62
2019-03-29T10:16:45.482Z,17.66
2019-03-29T10:19:18.415Z,17.68
2019-03-29T10:21:50.271Z,17.48
2019-03-29T10:24:22.142Z,17.30
2019-03-29T10:26:53.931Z,17.38
2019-03-29T10:29:26.017Z,17.37
2019-03-29T10:31:57.807Z,17.55
2019-03-29T10:34:30.241Z,17.69
2019-03-29T10:37:02.205Z,17.51
2019-03-29T10:39:35.831Z,17.67
2019-03-29T10:42:08.425Z,17.93
2019-03-29T10:44:40.206Z,18.03
2019-03-29T10:47:12.067Z,18.16
2019-03-29T10:49:43.976Z,18.20
2019-03-29T10:52:16.027Z,18.21
2019-03-29T10:54:49.864Z,18.00
2019-03-29T10:57:21.431Z,18.07
2019-03-29T10:59:53.576Z,17.86
2019-03-29T11:02:25.636Z,17.84
2019-03-29T11:04:57.483Z,17.86
2019-03-29T11:07:29.277Z,17.98
2019-03-29T11:10:01.392Z,17.84
2019-03-29T11:12:33.486Z,17.70
2019-03-29T11:15:07.165Z,17.71
2019-03-29T11:17:39.270Z,17.67
2019-03-29T11:20:11.583Z,17.95
2019-03-29T11:22:43.359Z,18.37
2019-03-29T11:25:15.234Z,18.47
2019-03-29T11:27:47.032Z,18.54
2019-03-29T11:30:18.966Z,18.75
2019-03-29T11:32:52.058Z,18.81
2019-03-29T11:35:24.581Z,18.98
2019-03-29T11:37:56.553Z,18.90
2019-03-29T11:40:28.415Z,18.87
2019-03-29T11:43:00.612Z,18.95
2019-03-29T11:45:33.314Z,18.84
2019-03-29T11:48:08.773Z,18.87
2019-03-29T11:50:39.732Z,18.68
2019-03-29T11:53:11.874Z,18.60
2019-03-29T11:55:43.716Z,18.67
2019-03-29T11:58:16.562Z,18.59
2019-03-29T12:00:49.415Z,18.70
2019-03-29T12:03:21.202Z,18.93
2019-03-29T12:05:53.255Z,18.96
2019-03-29T12:08:25.409Z,19.10
2019-03-29T12:10:57.191Z,19.21
2019-03-29T12:13:40.438Z,19.29
2019-03-29T12:16:02.612Z,19.20
2019-03-29T12:18:35.062Z,19.22
2019-03-29T12:21:07.295Z,19.35
2019-03-29T12:23:39.478Z,19.26
2019-03-29T12:26:11.338Z,19.32
2019-03-29T12:28:43.267Z,19.39
2019-03-29T12:31:15.697Z,19.40
2019-03-29T12:33:47.779Z,19.26
2019-03-29T12:36:20.003Z,19.12
2019-03-29T12:38:51.786Z,19.12
2019-03-29T12:41:23.579Z,19.11
2019-03-29T12:43:56.235Z,19.07
2019-03-29T12:46:28.361Z,19.10
2019-03-29T12:49:00.344Z,19.15
2019-03-29T12:51:32.726Z,19.01
2019-03-29T12:54:04.693Z,18.93
2019-03-29T12:56:36.835Z,19.04
2019-03-29T12:59:08.824Z,19.03
2019-03-29T13:01:40.785Z,19.11
2019-03-29T13:04:12.974Z,19.12
2019-03-29T13:06:44.888Z,19.12
2019-03-29T13:09:17.090Z,18.98
2019-03-29T13:11:49.413Z,18.87
2019-03-29T13:14:21.280Z,18.94
2019-03-29T13:16:53.488Z,19.07
2019-03-29T13:19:25.543Z,19.12
2019-03-29T13:21:57.470Z,19.07
2019-03-29T13:24:29.558Z,19.11
2019-03-29T13:27:02.156Z,19.15
2019-03-29T13:29:34.615Z,19.17
2019-03-29T13:32:07.258Z,19.12
2019-03-29T13:34:39.129Z,19.09
2019-03-29T13:37:11.054Z,19.12
2019-03-29T13:39:42.927Z,19.09
2019-03-29T13:42:14.791Z,19.07
2019-03-29T13:44:46.948Z,19.11
2019-03-29T13:47:18.861Z,19.17
2019-03-29T13:49:51.081Z,19.16
2019-03-29T13:52:22.895Z,19.25
2019-03-29T13:54:54.809Z,19.13
2019-03-29T13:57:28.058Z,19.14
2019-03-29T14:00:00.408Z,19.01
2019-03-29T14:02:32.250Z,19.05
2019-03-29T14:05:04.329Z,18.99
2019-03-29T14:07:37.371Z,19.11
2019-03-29T14:10:10.285Z,18.94
2019-03-29T14:12:42.907Z,18.81
2019-03-29T14:15:15.956Z,18.91
2019-03-29T14:18:00.230Z,18.93
2019-03-29T14:20:35.299Z,18.68
2019-03-29T14:23:07.398Z,18.70
2019-03-29T14:25:39.601Z,18.81
2019-03-29T14:28:11.444Z,18.84
2019-03-29T14:30:43.518Z,18.75
2019-03-29T14:33:15.364Z,18.67
2019-03-29T14:35:47.481Z,18.71
2019-03-29T14:38:19.511Z,18.83
2019-03-29T14:40:51.544Z,18.93
2019-03-29T14:43:23.337Z,18.84
2019-03-29T14:45:55.168Z,18.83
2019-03-29T14:48:27.002Z,18.90
2019-03-29T14:50:58.798Z,18.92
2019-03-29T14:53:31.673Z,18.87
2019-03-29T14:56:03.561Z,18.83
2019-03-29T14:58:35.996Z,18.84
2019-03-29T15:01:07.859Z,18.90
2019-03-29T15:03:39.802Z,18.94
2019-03-29T15:06:12.070Z,18.94
2019-03-29T15:08:44.192Z,18.92
2019-03-29T15:11:22.108Z,18.94
2019-03-29T15:13:56.511Z,18.91
2019-03-29T15:16:28.972Z,18.97
2019-03-29T15:19:00.809Z,18.93
2019-03-29T15:21:32.623Z,18.98
2019-03-29T15:24:04.547Z,18.98
2019-03-29T15:26:37.601Z,18.95
2019-03-29T15:29:09.779Z,18.92
2019-03-29T15:31:41.642Z,18.82
2019-03-29T15:34:16.894Z,18.87
2019-03-29T15:36:48.793Z,18.84
2019-03-29T15:39:21.747Z,18.84
2019-03-29T15:41:53.942Z,18.87
2019-03-29T15:44:25.665Z,18.89
2019-03-29T15:46:57.538Z,18.78
2019-03-29T15:49:29.670Z,18.75
2019-03-29T15:52:01.530Z,18.72
2019-03-29T15:54:34.017Z,18.72
2019-03-29T15:57:05.826Z,18.69
2019-03-29T15:59:37.777Z,18.71
2019-03-29T16:02:09.578Z,18.60
2019-03-29T16:04:41.855Z,18.59
2019-03-29T16:07:13.679Z,18.58
2019-03-29T16:09:45.469Z,18.53
2019-03-29T16:12:17.338Z,18.57
2019-03-29T16:14:49.206Z,18.55
2019-03-29T16:17:21.063Z,18.56
2019-03-29T16:19:52.947Z,18.47
2019-03-29T16:22:24.814Z,18.48
2019-03-29T16:24:56.635Z,18.50
2019-03-29T16:27:29.777Z,18.41
2019-03-29T16:30:01.675Z,18.40
2019-03-29T16:32:34.512Z,18.39
2019-03-29T16:35:08.176Z,18.37
2019-03-29T16:37:39.972Z,18.37
2019-03-29T16:40:12.149Z,18.29
2019-03-29T16:42:44.275Z,18.30
2019-03-29T16:45:16.147Z,18.25
2019-03-29T16:47:48.437Z,18.25
2019-03-29T16:50:20.228Z,18.23
2019-03-29T16:52:52.075Z,18.20
2019-03-29T16:55:23.988Z,18.15
2019-03-29T16:57:55.877Z,18.12
2019-03-29T17:00:27.656Z,18.14
2019-03-29T17:02:59.524Z,18.14
2019-03-29T17:05:31.371Z,18.07
2019-03-29T17:08:05.317Z,18.03
2019-03-29T17:10:37.912Z,18.02
2019-03-29T17:13:10.181Z,18.01
2019-03-29T17:15:42.020Z,18.01
2019-03-29T17:18:14.217Z,17.96
2019-03-29T17:20:46.300Z,17.96
2019-03-29T17:23:18.098Z,17.91
2019-03-29T17:25:50.311Z,17.83
2019-03-29T17:28:22.125Z,17.76
2019-03-29T17:30:57.365Z,17.74
2019-03-29T17:33:30.568Z,17.65
2019-03-29T17:36:02.561Z,17.60
2019-03-29T17:38:34.340Z,17.53
2019-03-29T17:41:06.477Z,17.46
2019-03-29T17:43:38.375Z,17.34
2019-03-29T17:46:16.627Z,17.26
2019-03-29T17:48:43.907Z,17.07
2019-03-29T17:51:15.899Z,16.93
2019-03-29T17:53:48.110Z,16.84
2019-03-29T17:56:20.131Z,16.65
2019-03-29T17:58:52.216Z,16.52
2019-03-29T18:01:23.997Z,16.38
2019-03-29T18:03:55.786Z,16.37
2019-03-29T18:06:27.843Z,16.22
2019-03-29T18:08:59.969Z,16.07
2019-03-29T18:11:31.758Z,15.97
2019-03-29T18:17:00.671Z,15.93
2019-03-29T18:19:32.628Z,15.91
2019-03-29T18:22:04.439Z,15.95
2019-03-29T18:24:36.399Z,15.94
2019-03-29T18:27:08.232Z,15.93
2019-03-29T18:29:40.047Z,15.93
2019-03-29T18:32:12.279Z,15.86
2019-03-29T18:34:44.179Z,15.79
2019-03-29T18:37:16.894Z,15.77
2019-03-29T18:39:49.020Z,15.75
2019-03-29T18:42:20.816Z,15.73
2019-03-29T18:44:52.644Z,15.69
2019-03-29T18:47:24.510Z,15.64
2019-03-29T18:49:56.379Z,15.56
2019-03-29T18:52:28.261Z,15.52
2019-03-29T18:55:00.078Z,15.41
2019-03-29T18:57:31.882Z,15.31
2019-03-29T19:00:03.926Z,15.27
2019-03-29T19:02:37.832Z,15.16
2019-03-29T19:05:14.152Z,15.01
2019-03-29T19:07:46.329Z,14.96
2019-03-29T19:10:18.329Z,14.86
2019-03-29T19:12:50.303Z,14.86
2019-03-29T19:15:22.361Z,14.78
2019-03-29T19:17:54.230Z,14.66
2019-03-29T19:20:28.124Z,14.56
2019-03-29T19:22:59.887Z,14.42
2019-03-29T19:25:31.956Z,14.44
2019-03-29T19:28:03.934Z,14.51
2019-03-29T19:30:35.995Z,14.53
2019-03-29T19:33:07.817Z,14.45
2019-03-29T19:35:40.580Z,14.44
2019-03-29T19:38:12.386Z,14.53
2019-03-29T19:40:44.345Z,14.50
2019-03-29T19:43:16.776Z,14.56
2019-03-29T19:45:48.644Z,14.45
2019-03-29T19:48:20.461Z,14.42
2019-03-29T19:50:52.309Z,14.38
2019-03-29T19:53:24.188Z,14.36
2019-03-29T19:55:56.190Z,14.27
2019-03-29T19:58:28.330Z,14.17
2019-03-29T20:01:00.137Z,14.13
2019-03-29T20:03:32.602Z,14.07
2019-03-29T20:06:04.454Z,14.15
2019-03-29T20:08:36.246Z,14.08
2019-03-29T20:11:08.138Z,14.07
2019-03-29T20:13:39.983Z,14.10
2019-03-29T20:16:12.026Z,14.09
2019-03-29T20:18:44.002Z,14.04
2019-03-29T20:21:15.901Z,13.98
2019-03-29T20:23:48.245Z,13.96
2019-03-29T20:26:20.472Z,13.95
2019-03-29T20:28:52.356Z,13.91
2019-03-29T20:31:24.230Z,13.89
2019-03-29T20:33:58.080Z,13.92
2019-03-29T20:36:29.878Z,13.83
2019-03-29T20:39:01.693Z,13.73
2019-03-29T20:41:34.862Z,13.74
2019-03-29T20:44:07.885Z,13.78
2019-03-29T20:46:40.070Z,13.75
2019-03-29T20:49:11.886Z,13.84
2019-03-29T20:51:43.793Z,13.79
2019-03-29T20:54:15.669Z,13.77
2019-03-29T20:56:48.504Z,13.75
2019-03-29T20:59:20.806Z,13.77
2019-03-29T21:01:53.051Z,13.72
2019-03-29T21:04:25.032Z,13.72
2019-03-29T21:06:57.314Z,13.72
2019-03-29T21:09:29.369Z,13.76
2019-03-29T21:12:01.157Z,13.75
2019-03-29T21:14:33.308Z,13.68
2019-03-29T21:17:05.182Z,13.42
2019-03-29T21:19:37.198Z,13.40
2019-03-29T21:22:09.518Z,13.42
2019-03-29T21:24:41.408Z,13.34
2019-03-29T21:27:13.609Z,13.31
2019-03-29T21:29:45.943Z,13.35
2019-03-29T21:32:18.409Z,13.34
2019-03-29T21:34:50.283Z,13.18
2019-03-29T21:37:22.160Z,13.14
2019-03-29T21:39:53.936Z,13.07
2019-03-29T21:42:25.911Z,13.02
2019-03-29T21:44:57.688Z,12.98
2019-03-29T21:47:30.378Z,12.90
2019-03-29T21:50:02.332Z,12.88
2019-03-29T21:52:34.570Z,12.75
2019-03-29T21:55:07.303Z,12.79
2019-03-29T21:57:39.124Z,12.57
2019-03-29T22:00:12.740Z,12.60
2019-03-29T22:02:44.842Z,12.70
2019-03-29T22:05:17.058Z,12.72
2019-03-29T22:07:48.949Z,12.70
2019-03-29T22:10:20.950Z,12.65
2019-03-29T22:12:52.809Z,12.73
2019-03-29T22:15:24.672Z,12.53
2019-03-29T22:17:56.848Z,12.48
2019-03-29T22:20:28.823Z,12.47
2019-03-29T22:23:00.993Z,12.44
2019-03-29T22:25:34.047Z,12.30
2019-03-29T22:28:06.919Z,12.31
2019-03-29T22:30:38.770Z,12.19
2019-03-29T22:33:10.551Z,12.16
2019-03-29T22:35:42.361Z,12.13
2019-03-29T22:38:14.277Z,12.15
2019-03-29T22:40:46.052Z,12.13
2019-03-29T22:43:18.694Z,12.06
2019-03-29T22:45:50.482Z,12.10
2019-03-29T22:48:22.269Z,12.16
2019-03-29T22:50:54.114Z,12.12
2019-03-29T22:53:25.909Z,12.09
2019-03-29T22:55:58.105Z,11.90
2019-03-29T22:58:30.235Z,11.84
2019-03-29T23:01:03.982Z,11.88
2019-03-29T23:03:35.868Z,11.84
2019-03-29T23:06:07.745Z,11.80
2019-03-29T23:08:39.587Z,11.78
2019-03-29T23:11:11.396Z,11.82
2019-03-29T23:13:43.608Z,11.78
2019-03-29T23:16:15.563Z,11.71
2019-03-29T23:18:48.892Z,11.57
2019-03-29T23:21:21.125Z,11.51
2019-03-29T23:23:53.097Z,11.37
2019-03-29T23:26:25.130Z,11.28
2019-03-29T23:28:57.093Z,11.37
2019-03-29T23:31:28.876Z,11.28
2019-03-29T23:34:00.752Z,11.32
2019-03-29T23:36:32.633Z,11.27
2019-03-29T23:39:05.195Z,11.39
2019-03-29T23:41:37.154Z,11.33
2019-03-29T23:44:09.041Z,11.36
2019-03-29T23:46:41.848Z,11.39
2019-03-29T23:49:20.821Z,11.29
2019-03-29T23:51:47.222Z,11.31
2019-03-29T23:54:19.138Z,11.30
2019-03-29T23:56:50.921Z,11.31
2019-03-29T23:59:23.231Z,11.16
